Time;durP1;ratioP1;P1;durP2;ratioP2;P2;SDS_P1;SDS_P2;PMS_P1;PMS_P2;Temp;Humidity;BMP_temperature;BMP_pressure;BME280_temperature;BME280_humidity;BME280_pressure;Samples;Min_cycle;Max_cycle;Signal;HPM_P1;HPM_P2
2023/05/02 00:00:46;;;;;;;14.32;11.68;;;;;;;9.34;100.00;101384.97;7748973;18;19997;-71
2023/05/02 00:03:13;;;;;;;12.98;10.35;;;;;;;8.47;100.00;101213.56;7790351;18;20061;-71
2023/05/02 00:05:40;;;;;;;24.20;12.88;;;;;;;9.42;100.00;101376.81;7790613;18;20060;-72
2023/05/02 00:08:06;;;;;;;17.33;11.43;;;;;;;8.58;100.00;101251.50;7789954;18;20011;-73
2023/05/02 00:10:33;;;;;;;19.60;13.02;;;;;;;8.62;100.00;101278.44;7791845;18;20559;-72
2023/05/02 00:13:00;;;;;;;14.63;10.75;;;;;;;8.89;100.00;101322.84;7789639;18;20006;-72
2023/05/02 00:15:26;;;;;;;26.55;12.85;;;;;;;9.26;100.00;101387.00;7792057;18;20010;-71
2023/05/02 00:17:53;;;;;;;16.15;10.27;;;;;;;8.76;100.00;101323.28;7790266;18;20006;-71
2023/05/02 00:20:19;;;;;;;15.23;12.00;;;;;;;9.22;100.00;101396.75;7789440;18;20014;-70
2023/05/02 00:22:48;;;;;;;13.98;11.32;;;;;;;9.12;100.00;101404.06;7790798;18;20014;-71
2023/05/02 00:25:16;;;;;;;18.17;12.45;;;;;;;8.90;100.00;101380.41;7791580;18;20004;-71
2023/05/02 00:27:45;;;;;;;16.77;11.38;;;;;;;9.02;100.00;101407.91;7790969;18;20002;-71
2023/05/02 00:30:13;;;;;;;19.77;12.35;;;;;;;8.59;100.00;101343.94;7787088;18;20002;-71
2023/05/02 00:32:40;;;;;;;17.17;11.85;;;;;;;8.66;100.00;101366.38;7788242;18;20053;-71
2023/05/02 00:35:07;;;;;;;15.18;11.57;;;;;;;8.93;100.00;101414.31;7788923;18;20013;-71
2023/05/02 00:37:34;;;;;;;13.55;11.65;;;;;;;8.93;100.00;101421.31;7791377;18;20005;-70
2023/05/02 00:40:02;;;;;;;14.95;11.25;;;;;;;8.49;100.00;101347.75;7790715;18;20073;-71
2023/05/02 00:42:33;;;;;;;21.95;11.20;;;;;;;8.91;100.00;101428.34;7786985;18;20002;-70
2023/05/02 00:44:59;;;;;;;15.70;11.82;;;;;;;8.91;100.00;101425.75;7790615;18;20002;-70
2023/05/02 00:47:26;;;;;;;23.10;12.05;;;;;;;8.60;100.00;101379.66;7790283;18;20526;-70
2023/05/02 00:49:52;;;;;;;19.10;12.77;;;;;;;8.87;100.00;101429.38;7791443;18;20002;-71
2023/05/02 00:52:19;;;;;;;19.52;12.40;;;;;;;8.90;100.00;101431.88;7790158;18;20013;-70
2023/05/02 00:54:46;;;;;;;24.40;12.90;;;;;;;8.34;100.00;101356.94;7791291;18;20010;-71
2023/05/02 00:57:12;;;;;;;17.02;10.98;;;;;;;8.82;100.00;101442.63;7789637;18;19998;-70
2023/05/02 00:59:39;;;;;;;18.35;13.25;;;;;;;8.83;100.00;101440.84;7790030;18;20067;-71
2023/05/02 01:02:27;;;;;;;18.90;12.05;;;;;;;8.78;100.00;101438.41;7789478;18;20069;-70
2023/05/02 01:05:26;;;;;;;19.77;12.00;;;;;;;8.82;100.00;101452.22;7791056;18;19990;-70
2023/05/02 01:08:19;;;;;;;20.77;11.98;;;;;;;8.88;100.00;101450.25;7791463;18;20676;-70
2023/05/02 01:10:51;;;;;;;15.95;11.57;;;;;;;8.91;100.00;101439.69;7794914;18;20006;-70
2023/05/02 01:13:31;;;;;;;16.48;12.60;;;;;;;7.93;100.00;101281.53;7799516;18;20064;-71
2023/05/02 01:16:01;;;;;;;18.42;12.57;;;;;;;8.85;100.00;101441.66;7799831;18;20453;-70
2023/05/02 01:18:34;;;;;;;14.55;11.75;;;;;;;8.10;100.00;101345.50;7789977;18;19994;-69
2023/05/02 01:21:06;;;;;;;23.83;13.75;;;;;;;8.69;100.00;101447.38;7790776;18;20010;-73
2023/05/02 01:24:01;;;;;;;17.08;11.27;;;;;;;8.75;100.00;101467.25;7790077;18;20064;-73
2023/05/02 01:26:52;;;;;;;18.55;11.88;;;;;;;8.65;100.00;101458.00;7789871;18;20571;-73
2023/05/02 01:29:21;;;;;;;15.98;11.40;;;;;;;8.23;100.00;101414.78;7747208;18;19998;-73
2023/05/02 01:31:50;;;;;;;18.67;13.05;;;;;;;5.88;100.00;101054.41;7790223;18;19998;-70
2023/05/02 01:34:19;;;;;;;17.08;12.18;;;;;;;8.04;100.00;101395.34;7789583;18;20012;-72
2023/05/02 01:36:49;;;;;;;18.42;11.80;;;;;;;8.47;100.00;101470.75;7790485;18;19998;-71
2023/05/02 01:39:19;;;;;;;31.83;14.75;;;;;;;8.29;100.00;101448.59;7789923;18;20746;-69
2023/05/02 01:41:50;;;;;;;25.50;12.27;;;;;;;8.44;100.00;101527.53;7789738;18;20005;-70
2023/05/02 01:44:20;;;;;;;17.80;12.07;;;;;;;8.45;100.00;101472.56;7787271;18;20065;-70
2023/05/02 01:46:51;;;;;;;29.38;12.77;;;;;;;7.85;100.00;101366.31;7790023;18;20052;-72
2023/05/02 01:49:19;;;;;;;21.17;11.82;;;;;;;8.42;100.00;101458.72;7789731;18;19998;-70
2023/05/02 01:51:49;;;;;;;16.58;14.02;;;;;;;8.66;100.00;101491.09;7789548;18;20009;-70
2023/05/02 01:54:17;;;;;;;14.85;11.15;;;;;;;7.17;100.00;101229.88;7788853;18;20064;-70
2023/05/02 01:56:45;;;;;;;26.92;13.10;;;;;;;8.81;100.00;101495.00;7789330;18;20012;-70
2023/05/02 01:59:15;;;;;;;20.60;13.20;;;;;;;8.82;100.00;101491.47;7788899;18;19994;-70
2023/05/02 02:01:43;;;;;;;21.52;14.30;;;;;;;8.41;100.00;101422.97;7790466;18;20032;-72
2023/05/02 02:04:12;;;;;;;21.88;12.68;;;;;;;8.90;100.00;101513.91;7788521;18;19998;-70
2023/05/02 02:06:43;;;;;;;27.10;12.32;;;;;;;8.92;100.00;101509.47;7790082;18;19998;-73
2023/05/02 02:09:09;;;;;;;27.75;13.48;;;;;;;8.58;100.00;101446.88;7789409;18;20021;-73
2023/05/02 02:11:51;;;;;;;17.77;11.18;;;;;;;8.96;100.00;101505.84;7792050;18;20217;-73
2023/05/02 02:14:21;;;;;;;18.58;12.88;;;;;;;9.03;100.00;101519.56;7789946;18;20850;-72
2023/05/02 02:16:52;;;;;;;23.00;12.80;;;;;;;8.58;100.00;101436.41;7789108;18;20002;-71
2023/05/02 02:19:20;;;;;;;31.25;14.60;;;;;;;9.09;100.00;101522.00;7791058;18;20576;-71
2023/05/02 02:21:47;;;;;;;19.55;12.50;;;;;;;8.63;100.00;101439.72;7792313;18;20006;-71
2023/05/02 02:24:17;;;;;;;21.10;13.55;;;;;;;9.07;100.00;101495.00;7750148;18;20521;-71
2023/05/02 02:26:45;;;;;;;24.20;12.85;;;;;;;7.85;100.00;101300.97;7791797;18;20002;-72
2023/05/02 02:29:11;;;;;;;14.75;9.65;;;;;;;8.85;100.00;101460.81;7792198;18;19998;-70
2023/05/02 02:31:38;;;;;;;22.40;12.05;;;;;;;9.25;100.00;101519.72;7791060;18;20411;-71
2023/05/02 02:34:05;;;;;;;25.58;12.10;;;;;;;9.27;100.00;101515.28;7789852;18;20057;-71
2023/05/02 02:36:52;;;;;;;26.85;12.50;;;;;;;9.14;100.00;101519.22;7790261;18;20106;-71
2023/05/02 02:39:30;;;;;;;25.50;12.60;;;;;;;9.28;100.00;101526.63;7790668;18;19994;-71
2023/05/02 02:42:21;;;;;;;23.73;13.18;;;;;;;9.35;100.00;101533.38;7791149;18;20677;-70
2023/05/02 02:45:15;;;;;;;11.23;10.07;;;;;;;9.38;100.00;101530.63;7789222;18;20002;-73
2023/05/02 02:48:07;;;;;;;17.33;13.05;;;;;;;9.44;100.00;101529.56;7790649;18;20042;-71
2023/05/02 02:50:45;;;;;;;14.00;11.02;;;;;;;9.44;100.00;101529.56;7791085;18;20044;-71
2023/05/02 02:53:19;;;;;;;28.15;13.13;;;;;;;9.41;100.00;101524.47;7790686;18;20010;-71
2023/05/02 02:55:51;;;;;;;23.00;13.90;;;;;;;9.48;100.00;101539.91;7791021;18;20006;-72
2023/05/02 02:58:29;;;;;;;17.42;11.65;;;;;;;9.24;100.00;101499.69;7748497;18;20017;-70
2023/05/02 03:00:57;;;;;;;15.85;10.90;;;;;;;9.53;100.00;101537.97;7791159;18;19998;-71
2023/05/02 03:03:27;;;;;;;17.70;11.60;;;;;;;9.53;100.00;101537.13;7792058;18;20481;-71
2023/05/02 03:05:58;;;;;;;16.10;13.02;;;;;;;8.93;100.00;101443.09;7791217;18;19998;-71
2023/05/02 03:08:25;;;;;;;19.13;12.38;;;;;;;9.49;100.00;101539.00;7791341;18;20068;-70
2023/05/02 03:10:51;;;;;;;17.23;10.27;;;;;;;9.58;100.00;101554.41;7790964;18;20010;-70
2023/05/02 03:13:17;;;;;;;17.85;10.10;;;;;;;9.56;100.00;101555.34;7790626;18;20546;-71
2023/05/02 03:15:50;;;;;;;15.77;12.05;;;;;;;9.55;100.00;101562.38;7792401;18;20004;-72
2023/05/02 03:18:17;;;;;;;19.25;10.93;;;;;;;9.56;100.00;101561.47;7790910;18;20069;-71
2023/05/02 03:20:44;;;;;;;17.20;9.30;;;;;;;9.61;100.00;101560.47;7788630;18;19998;-71
2023/05/02 03:23:10;;;;;;;13.55;9.40;;;;;;;9.50;100.00;101551.22;7787844;18;20225;-71
2023/05/02 03:25:37;;;;;;;19.95;11.30;;;;;;;8.94;100.00;101463.16;7792072;18;20020;-71
2023/05/02 03:28:04;;;;;;;16.83;11.40;;;;;;;9.60;100.00;101572.69;7790299;18;20037;-70
2023/05/02 03:30:33;;;;;;;22.13;10.52;;;;;;;9.57;100.00;101571.03;7790620;18;20065;-71
2023/05/02 03:33:00;;;;;;;23.25;11.57;;;;;;;9.34;100.00;101537.75;7790515;18;20014;-71
2023/05/02 03:35:27;;;;;;;18.80;9.30;;;;;;;9.61;100.00;101576.19;7790982;18;20025;-70
2023/05/02 03:37:53;;;;;;;21.88;11.15;;;;;;;9.36;100.00;101538.56;7791632;18;19998;-71
2023/05/02 03:40:20;;;;;;;17.75;11.27;;;;;;;8.77;100.00;101447.97;7791671;18;20110;-71
2023/05/02 03:42:47;;;;;;;27.33;11.30;;;;;;;9.36;100.00;101541.19;7790836;18;20017;-70
2023/05/02 03:45:14;;;;;;;17.65;9.48;;;;;;;9.59;100.00;101581.47;7789835;18;20010;-71
2023/05/02 03:47:40;;;;;;;12.93;9.45;;;;;;;9.36;100.00;101551.66;7790492;18;20012;-71
2023/05/02 03:50:07;;;;;;;13.68;9.27;;;;;;;9.58;100.00;101588.47;7791699;18;20002;-71
2023/05/02 03:52:33;;;;;;;18.40;11.32;;;;;;;9.61;100.00;101592.75;7790847;18;20006;-71
2023/05/02 03:55:01;;;;;;;17.88;10.75;;;;;;;9.31;100.00;101537.00;7791966;18;20009;-71
2023/05/02 03:57:30;;;;;;;26.52;10.35;;;;;;;9.63;100.00;101588.31;7789723;18;20506;-71
2023/05/02 03:59:57;;;;;;;18.30;9.32;;;;;;;9.66;100.00;101592.59;7749403;18;20022;-73
2023/05/02 04:02:24;;;;;;;17.92;10.43;;;;;;;9.10;100.00;101517.59;7790084;18;20723;-70
2023/05/02 04:04:50;;;;;;;19.02;10.88;;;;;;;9.61;100.00;101605.88;7791129;18;20007;-73
2023/05/02 04:07:18;;;;;;;13.38;9.43;;;;;;;9.63;100.00;101606.66;7790661;18;20883;-73
2023/05/02 04:09:45;;;;;;;13.55;9.93;;;;;;;9.07;100.00;101507.25;7792377;18;19994;-70
2023/05/02 04:12:12;;;;;;;12.50;8.98;;;;;;;9.41;100.00;101575.09;7789729;18;20010;-69
2023/05/02 04:14:38;;;;;;;18.35;11.70;;;;;;;9.59;100.00;101615.53;7791428;18;20599;-72
2023/05/02 04:17:05;;;;;;;19.58;11.57;;;;;;;9.54;100.00;101609.59;7790579;18;19997;-70
2023/05/02 04:19:33;;;;;;;16.88;10.00;;;;;;;9.22;100.00;101553.00;7791246;18;20014;-73
2023/05/02 04:22:01;;;;;;;13.43;9.80;;;;;;;9.69;100.00;101623.97;7790288;18;20030;-74
2023/05/02 04:24:28;;;;;;;18.23;10.88;;;;;;;9.13;100.00;101528.84;7790940;18;20200;-70
2023/05/02 04:26:54;;;;;;;17.70;10.52;;;;;;;9.73;100.00;101618.53;7790760;18;20535;-72
2023/05/02 04:29:21;;;;;;;15.82;10.13;;;;;;;9.51;100.00;101589.59;7789702;18;20066;-73
2023/05/02 04:31:48;;;;;;;15.57;8.57;;;;;;;9.73;100.00;101620.31;7791207;18;20017;-71
2023/05/02 04:34:14;;;;;;;16.20;9.85;;;;;;;9.33;100.00;101553.53;7789798;18;20061;-73
2023/05/02 04:36:40;;;;;;;11.20;9.00;;;;;;;8.78;100.00;101457.56;7792737;18;20155;-71
2023/05/02 04:39:09;;;;;;;10.85;8.75;;;;;;;9.78;100.00;101623.63;7795386;18;20354;-73
2023/05/02 04:41:36;;;;;;;23.90;10.57;;;;;;;9.44;100.00;101579.34;7791914;18;20004;-73
2023/05/02 04:44:02;;;;;;;12.25;9.25;;;;;;;9.79;100.00;101647.19;7791000;18;20013;-72
2023/05/02 04:46:29;;;;;;;23.45;10.45;;;;;;;9.32;100.00;101564.91;7790441;18;20012;-71
2023/05/02 04:48:55;;;;;;;11.00;9.50;;;;;;;9.53;100.00;101597.41;7750227;18;20060;-76
2023/05/02 04:51:22;;;;;;;15.45;9.45;;;;;;;9.09;100.00;101547.34;7790275;18;20026;-73
2023/05/02 04:53:49;;;;;;;10.07;7.53;;;;;;;9.75;100.00;101663.06;7790548;18;20016;-72
2023/05/02 04:56:15;;;;;;;17.00;8.20;;;;;;;9.82;100.00;101687.31;7792737;18;20056;-74
2023/05/02 04:58:42;;;;;;;11.75;8.55;;;;;;;9.75;100.00;101668.31;7792169;18;20154;-73
2023/05/02 05:01:08;;;;;;;14.60;9.68;;;;;;;9.74;100.00;101674.44;7792164;18;20000;-71
2023/05/02 05:03:34;;;;;;;11.80;9.38;;;;;;;8.83;100.00;101522.84;7790246;18;20001;-75
2023/05/02 05:06:01;;;;;;;13.93;8.82;;;;;;;9.76;100.00;101675.25;7791807;18;20330;-73
2023/05/02 05:08:28;;;;;;;12.30;9.45;;;;;;;9.30;100.00;101613.84;7790558;18;20001;-74
2023/05/02 05:10:54;;;;;;;13.73;8.52;;;;;;;9.81;100.00;101677.75;7791608;18;20029;-72
2023/05/02 05:13:21;;;;;;;20.80;9.23;;;;;;;9.83;100.00;101679.41;7750745;18;20403;-73
2023/05/02 05:15:47;;;;;;;21.42;9.48;;;;;;;9.64;100.00;101650.31;7791920;18;20441;-73
2023/05/02 05:18:14;;;;;;;15.13;7.95;;;;;;;9.85;100.00;101679.34;7791807;18;20009;-71
2023/05/02 05:20:40;;;;;;;15.13;10.13;;;;;;;9.87;100.00;101673.13;7792288;18;20340;-72
2023/05/02 05:23:07;;;;;;;13.70;8.52;;;;;;;9.41;100.00;101624.88;7791159;18;20006;-74
2023/05/02 05:25:33;;;;;;;15.15;8.80;;;;;;;9.81;100.00;101691.69;7792533;18;20082;-73
2023/05/02 05:27:59;;;;;;;18.08;9.15;;;;;;;9.68;100.00;101708.72;7791907;18;20336;-70
2023/05/02 05:30:26;;;;;;;15.40;8.50;;;;;;;9.21;100.00;101619.41;7789888;18;20008;-74
2023/05/02 05:32:52;;;;;;;11.88;7.72;;;;;;;9.70;100.00;101706.91;7790641;18;20095;-75
2023/05/02 05:35:19;;;;;;;15.43;8.75;;;;;;;9.68;100.00;101706.09;7790451;18;20009;-72
2023/05/02 05:37:45;;;;;;;10.25;8.35;;;;;;;9.66;100.00;101714.03;7789417;18;20069;-72
2023/05/02 05:40:12;;;;;;;12.10;9.40;;;;;;;9.66;100.00;101718.41;7790029;18;20008;-72
2023/05/02 05:42:38;;;;;;;26.75;24.58;;;;;;;9.67;100.00;101717.50;7582806;18;20463;-75
2023/05/02 05:45:05;;;;;;;11.65;8.75;;;;;;;9.62;100.00;101725.50;7792564;18;20505;-72
2023/05/02 05:47:31;;;;;;;20.45;11.07;;;;;;;9.28;100.00;101676.81;7790754;18;20006;-74
2023/05/02 05:49:58;;;;;;;17.30;10.05;;;;;;;9.66;100.00;101731.50;7751928;18;20002;-74
2023/05/02 05:52:25;;;;;;;14.57;9.35;;;;;;;9.31;100.00;101695.03;7793784;18;20042;-73
2023/05/02 05:54:58;;;;;;;14.82;10.75;;;;;;;9.58;100.00;101745.72;7793175;18;20017;-73
2023/05/02 05:57:25;;;;;;;17.73;9.90;;;;;;;9.56;100.00;101752.78;7791664;18;20005;-73
2023/05/02 05:59:51;;;;;;;18.30;9.23;;;;;;;9.67;100.00;101755.06;7792929;18;20053;-72
2023/05/02 06:02:18;;;;;;;13.15;9.38;;;;;;;9.51;100.00;101736.31;7793413;18;20353;-71
2023/05/02 06:04:45;;;;;;;12.80;8.63;;;;;;;9.48;100.00;101738.19;7791672;18;19998;-73
2023/05/02 06:07:12;;;;;;;10.30;8.30;;;;;;;9.76;100.00;101770.50;7792774;18;20061;-71
2023/05/02 06:09:38;;;;;;;16.50;9.85;;;;;;;9.59;100.00;101742.19;7798822;18;20013;-75
2023/05/02 06:12:05;;;;;;;12.90;7.88;;;;;;;9.73;100.00;101760.09;7799272;18;20010;-72
2023/05/02 06:14:31;;;;;;;13.25;9.07;;;;;;;9.68;100.00;101784.72;7795586;18;20448;-72
2023/05/02 06:16:59;;;;;;;25.30;9.82;;;;;;;9.71;100.00;101764.53;7792795;18;20193;-71
2023/05/02 06:19:25;;;;;;;15.88;8.55;;;;;;;9.70;100.00;101770.69;7792272;18;19996;-73
2023/05/02 06:21:51;;;;;;;14.63;8.52;;;;;;;9.68;100.00;101772.50;7792074;18;20436;-71
2023/05/02 06:24:18;;;;;;;26.65;9.18;;;;;;;9.79;100.00;101780.03;7791632;18;20557;-69
2023/05/02 06:26:45;;;;;;;14.07;8.02;;;;;;;8.51;100.00;101573.53;7791973;18;20418;-71
2023/05/02 06:29:12;;;;;;;9.23;8.07;;;;;;;9.66;100.00;101789.16;7790328;18;20013;-70
2023/05/02 06:31:38;;;;;;;14.65;10.82;;;;;;;9.70;100.00;101802.16;7790193;18;20253;-72
2023/05/02 06:34:05;;;;;;;13.02;9.38;;;;;;;9.76;100.00;101801.97;7739651;18;20296;-73
2023/05/02 06:36:31;;;;;;;12.88;8.45;;;;;;;9.79;100.00;101808.88;7790969;18;20022;-74
2023/05/02 06:38:58;;;;;;;16.02;9.65;;;;;;;9.41;100.00;101755.00;7789400;18;20020;-70
2023/05/02 06:41:24;;;;;;;11.93;8.57;;;;;;;9.74;100.00;101806.41;7789142;18;20005;-71
2023/05/02 06:43:50;;;;;;;9.02;6.88;;;;;;;9.79;100.00;101814.97;7788893;18;20015;-73
2023/05/02 06:46:19;;;;;;;12.50;7.18;;;;;;;9.88;100.00;101816.47;7788624;18;20427;-72
2023/05/02 06:48:45;;;;;;;8.55;6.18;;;;;;;9.77;100.00;101794.94;7786424;18;20439;-72
2023/05/02 06:51:13;;;;;;;13.13;6.95;;;;;;;10.04;100.00;101822.03;7789619;18;19994;-74
2023/05/02 06:53:40;;;;;;;6.68;5.57;;;;;;;10.02;100.00;101817.75;7787543;18;20017;-72
2023/05/02 06:56:07;;;;;;;5.95;5.43;;;;;;;10.27;100.00;101818.69;7788530;18;20002;-73
2023/05/02 06:58:33;;;;;;;6.20;5.70;;;;;;;10.41;100.00;101815.66;7788707;18;20101;-72
2023/05/02 07:00:59;;;;;;;7.57;5.70;;;;;;;10.53;100.00;101819.63;7790023;18;20009;-72
2023/05/02 07:03:26;;;;;;;6.10;5.70;;;;;;;10.23;100.00;101779.50;7788139;18;20006;-71
2023/05/02 07:05:52;;;;;;;6.50;5.85;;;;;;;10.62;100.00;101815.81;7789095;18;20023;-74
2023/05/02 07:08:21;;;;;;;10.05;6.35;;;;;;;10.36;100.00;101746.69;7789619;18;20317;-72
2023/05/02 07:10:47;;;;;;;6.20;5.70;;;;;;;11.04;100.00;101828.34;7791831;18;19990;-71
2023/05/02 07:13:14;;;;;;;6.07;5.68;;;;;;;11.01;100.00;101844.22;7788812;18;20582;-71
2023/05/02 07:15:42;;;;;;;10.38;5.60;;;;;;;10.72;100.00;101812.84;7791655;18;19996;-74
2023/05/02 07:18:08;;;;;;;7.38;6.20;;;;;;;10.95;100.00;101837.44;7789205;18;20367;-73
2023/05/02 07:20:34;;;;;;;5.25;4.95;;;;;;;10.83;100.00;101835.25;7788586;18;20154;-72
2023/05/02 07:23:02;;;;;;;8.40;6.28;;;;;;;10.99;100.00;101839.03;7789606;18;19994;-73
2023/05/02 07:25:29;;;;;;;5.80;5.40;;;;;;;10.82;100.00;101836.97;7790184;18;20103;-74
2023/05/02 07:27:55;;;;;;;7.57;6.22;;;;;;;10.89;100.00;101842.91;7789488;18;20541;-73
2023/05/02 07:30:22;;;;;;;7.07;6.43;;;;;;;10.26;100.00;101756.63;7788942;18;20048;-71
2023/05/02 07:32:48;;;;;;;6.45;5.47;;;;;;;10.82;100.00;101834.34;7788761;18;20002;-73
2023/05/02 07:35:15;;;;;;;5.70;5.30;;;;;;;10.93;100.00;101836.63;7789809;18;20414;-74
2023/05/02 07:37:41;;;;;;;5.50;5.20;;;;;;;10.58;100.00;101773.94;7789507;18;20006;-73
2023/05/02 07:40:08;;;;;;;6.03;5.50;;;;;;;10.95;100.00;101843.53;7789599;18;20000;-72
2023/05/02 07:42:35;;;;;;;5.90;5.43;;;;;;;10.80;100.00;101837.94;7789765;18;20025;-72
2023/05/02 07:45:01;;;;;;;6.55;5.38;;;;;;;10.64;100.00;101832.38;7793956;18;20002;-70
2023/05/02 07:47:28;;;;;;;5.47;4.68;;;;;;;10.45;100.00;101854.00;7791264;18;20013;-73
2023/05/02 07:49:55;;;;;;;5.10;4.80;;;;;;;10.42;100.00;101842.75;7789692;18;20136;-73
2023/05/02 07:52:21;;;;;;;9.80;4.95;;;;;;;10.50;100.00;101846.84;7791875;18;20009;-70
2023/05/02 07:54:48;;;;;;;5.53;5.03;;;;;;;10.71;100.00;101847.88;7792676;18;20064;-73
2023/05/02 07:57:15;;;;;;;4.90;4.60;;;;;;;10.89;100.00;101856.03;7791986;18;20024;-71
2023/05/02 07:59:41;;;;;;;5.60;5.22;;;;;;;10.93;100.00;101857.63;7791681;18;20057;-73
2023/05/02 08:02:08;;;;;;;5.60;5.20;;;;;;;10.40;100.00;101755.34;7784936;18;20005;-74
2023/05/02 08:04:34;;;;;;;5.40;5.00;;;;;;;11.01;100.00;101849.50;7788369;18;20006;-73
2023/05/02 08:07:01;;;;;;;5.97;5.38;;;;;;;10.98;100.00;101842.56;7788364;18;20002;-71
2023/05/02 08:09:28;;;;;;;5.47;5.15;;;;;;;11.02;100.00;101843.31;7789070;18;20283;-72
2023/05/02 08:11:54;;;;;;;5.80;5.40;;;;;;;10.87;100.00;101832.44;7789044;18;20548;-72
2023/05/02 08:14:21;;;;;;;5.53;5.07;;;;;;;11.06;100.00;101848.38;7787029;18;20074;-73
2023/05/02 08:16:47;;;;;;;5.32;5.03;;;;;;;10.98;100.00;101795.28;7792255;18;20306;-72
2023/05/02 08:19:14;;;;;;;7.18;5.47;;;;;;;10.57;100.00;101730.22;7790133;18;20147;-73
2023/05/02 08:21:41;;;;;;;6.00;5.38;;;;;;;11.55;100.00;101841.34;7743533;18;20002;-73
2023/05/02 08:24:07;;;;;;;5.03;4.80;;;;;;;11.96;100.00;101851.19;7790579;18;20080;-72
2023/05/02 08:26:36;;;;;;;5.30;5.00;;;;;;;11.67;96.88;101857.56;7743719;18;20012;-73
2023/05/02 08:29:03;;;;;;;9.13;5.60;;;;;;;11.51;94.69;101833.63;7791002;18;20072;-72
2023/05/02 08:31:29;;;;;;;8.02;5.35;;;;;;;10.60;91.88;101752.88;7744249;18;20010;-72
2023/05/02 08:33:56;;;;;;;6.45;5.90;;;;;;;10.49;90.83;101791.78;7789127;18;20013;-73
2023/05/02 08:36:23;;;;;;;5.47;5.00;;;;;;;10.41;91.30;101807.78;7744315;18;20186;-71
2023/05/02 08:38:50;;;;;;;5.35;5.05;;;;;;;10.19;91.44;101807.59;7792091;18;20334;-72
2023/05/02 08:41:18;;;;;;;5.20;4.90;;;;;;;10.12;91.49;101811.31;7742900;18;20006;-73
2023/05/02 08:43:45;;;;;;;13.98;5.68;;;;;;;9.78;92.28;101763.44;7789484;18;20053;-71
2023/05/02 08:46:14;;;;;;;5.38;4.97;;;;;;;9.61;93.80;101723.78;7699312;18;20086;-74
2023/05/02 08:48:43;;;;;;;5.43;5.03;;;;;;;10.21;93.81;101834.63;7791634;18;20045;-72
2023/05/02 08:51:15;;;;;;;6.60;5.88;;;;;;;10.13;93.69;101831.41;7742080;18;20002;-72
2023/05/02 08:53:43;;;;;;;5.28;4.78;;;;;;;10.10;93.01;101829.75;7792152;18;20053;-72
2023/05/02 08:56:12;;;;;;;5.45;5.00;;;;;;;9.70;92.97;101775.06;7744443;18;20026;-71
2023/05/02 08:58:39;;;;;;;5.60;5.20;;;;;;;9.97;94.56;101820.53;7748497;18;20068;-72
2023/05/02 09:01:14;;;;;;;5.70;5.20;;;;;;;9.31;94.53;101710.75;7700817;18;20022;-71
2023/05/02 09:03:45;;;;;;;8.00;5.40;;;;;;;10.17;94.76;101854.00;7790960;18;20002;-73
2023/05/02 09:06:16;;;;;;;7.07;6.38;;;;;;;10.41;95.04;101859.41;7743995;18;20430;-70
2023/05/02 09:08:44;;;;;;;9.38;5.63;;;;;;;10.29;92.54;101827.38;7788429;18;20013;-71
2023/05/02 09:11:11;;;;;;;8.00;5.00;;;;;;;10.43;91.19;101850.56;7745048;18;20005;-72
2023/05/02 09:13:38;;;;;;;6.22;5.65;;;;;;;10.44;90.03;101836.53;7793049;18;20442;-72
2023/05/02 09:16:09;;;;;;;6.25;5.72;;;;;;;10.68;89.67;101842.72;7745731;18;20207;-72
2023/05/02 09:18:40;;;;;;;5.68;5.28;;;;;;;10.43;88.29;101803.31;7789886;18;20061;-72
2023/05/02 09:21:17;;;;;;;5.90;5.32;;;;;;;10.58;87.61;101817.69;7744906;18;20005;-73
2023/05/02 09:23:48;;;;;;;6.35;5.75;;;;;;;10.26;86.63;101763.63;7749837;18;20006;-72
2023/05/02 09:26:16;;;;;;;5.60;5.15;;;;;;;10.31;84.90;101749.50;7744297;18;19994;-74
2023/05/02 09:28:53;;;;;;;8.88;5.20;;;;;;;10.80;83.89;101830.06;7790655;18;20064;-72
2023/05/02 09:31:33;;;;;;;9.45;5.80;;;;;;;9.57;81.00;101554.47;7741960;18;20021;-73
2023/05/02 09:34:19;;;;;;;10.75;5.50;;;;;;;11.17;79.33;101753.44;7756325;18;20249;-71
2023/05/02 09:36:52;;;;;;;10.63;5.00;;;;;;;11.17;77.34;101733.25;7745321;18;20039;-74
2023/05/02 09:39:24;;;;;;;5.30;4.82;;;;;;;12.16;76.66;101782.84;7792333;18;20003;-71
2023/05/02 09:41:51;;;;;;;5.65;5.25;;;;;;;12.43;73.92;101748.38;7745907;18;20057;-74
2023/05/02 09:44:20;;;;;;;5.13;4.72;;;;;;;11.84;72.12;101664.91;7751008;18;20044;-72
2023/05/02 09:46:48;;;;;;;9.75;5.50;;;;;;;11.57;73.45;101681.75;7705599;18;20003;-72
2023/05/02 09:49:17;;;;;;;5.53;5.03;;;;;;;11.27;73.76;101633.91;7793206;18;19998;-71
2023/05/02 09:51:48;;;;;;;5.80;5.32;;;;;;;11.93;73.82;101709.28;7744450;18;20006;-72
2023/05/02 09:54:35;;;;;;;6.18;5.78;;;;;;;12.26;71.44;101693.81;7793859;18;20262;-73
2023/05/02 09:57:02;;;;;;;7.75;5.38;;;;;;;12.12;70.25;101651.47;7745257;18;20612;-71
2023/05/02 09:59:29;;;;;;;6.15;5.68;;;;;;;12.15;71.13;101689.03;7794358;18;19998;-75
2023/05/02 10:02:02;;;;;;;6.95;6.32;;;;;;;12.31;71.04;101686.59;7796853;18;20070;-74
2023/05/02 10:04:29;;;;;;;;;;;;;;;12.29;71.26;101682.31;7796302;18;20181;-74
2023/05/02 10:06:57;;;;;;;11.82;6.72;;;;;;;11.56;73.26;101687.91;7790215;18;19902;-72
2023/05/02 10:09:25;;;;;;;15.85;7.03;;;;;;;10.38;74.83;101569.06;7792258;18;20206;-73
2023/05/02 10:11:55;;;;;;;6.03;5.63;;;;;;;11.05;75.38;101727.63;7790498;18;20476;-71
2023/05/02 10:14:24;;;;;;;7.20;6.15;;;;;;;10.97;75.87;101728.75;7789957;18;20056;-72
2023/05/02 10:17:00;;;;;;;6.80;6.20;;;;;;;11.10;76.81;101751.94;7792391;18;20022;-73
2023/05/02 10:19:48;;;;;;;9.63;5.85;;;;;;;10.86;76.08;101667.88;7792990;18;20127;-72
2023/05/02 10:22:18;;;;;;;12.55;6.18;;;;;;;10.19;74.96;101529.53;7790153;18;20010;-71
2023/05/02 10:24:49;;;;;;;7.57;6.78;;;;;;;11.73;75.65;101754.78;7788092;18;20450;-71
2023/05/02 10:27:16;;;;;;;8.93;5.53;;;;;;;11.61;73.26;101653.56;7790996;18;20637;-71
2023/05/02 10:29:43;;;;;;;5.47;5.07;;;;;;;11.82;70.26;101582.59;7789365;18;20470;-73
2023/05/02 10:32:10;;;;;;;6.63;5.85;;;;;;;12.58;68.88;101646.78;7792434;18;20002;-72
2023/05/02 10:34:39;;;;;;;5.70;5.38;;;;;;;11.93;68.64;101565.44;7793931;18;20258;-73
2023/05/02 10:37:05;;;;;;;8.98;5.45;;;;;;;11.40;66.96;101446.81;7792734;18;20005;-70
2023/05/02 10:39:32;;;;;;;5.95;5.30;;;;;;;12.55;67.37;101612.72;7791899;18;20123;-71
2023/05/02 10:42:03;;;;;;;7.45;5.38;;;;;;;13.46;65.15;101603.16;7791293;18;19994;-73
2023/05/02 10:44:39;;;;;;;5.35;5.05;;;;;;;13.96;63.67;101582.09;7793835;18;20063;-73
2023/05/02 10:47:22;;;;;;;7.03;5.72;;;;;;;14.06;63.56;101566.63;7791859;18;20308;-73
2023/05/02 10:49:55;;;;;;;6.72;6.22;;;;;;;13.88;61.01;101472.59;7792893;18;20060;-74
2023/05/02 10:52:32;;;;;;;8.65;5.70;;;;;;;14.35;61.75;101516.66;7790919;18;20395;-72
2023/05/02 10:55:22;;;;;;;5.85;5.55;;;;;;;14.21;60.93;101506.00;7793083;18;20420;-73
2023/05/02 10:57:57;;;;;;;9.20;8.30;;;;;;;13.51;61.08;101425.31;7787154;18;20002;-73
2023/05/02 11:00:29;;;;;;;7.25;6.35;;;;;;;13.11;60.99;101392.22;7792838;18;20395;-73
2023/05/02 11:02:55;;;;;;;6.30;5.75;;;;;;;13.25;61.36;101415.22;7792490;18;20001;-74
2023/05/02 11:05:23;;;;;;;5.40;5.10;;;;;;;13.66;59.93;101442.09;7797288;18;20025;-73
2023/05/02 11:08:15;;;;;;;7.05;5.70;;;;;;;14.07;58.06;101388.00;7797375;18;19998;-74
2023/05/02 11:10:45;;;;;;;6.35;5.47;;;;;;;13.69;58.30;101322.38;7797030;18;20006;-74
2023/05/02 11:13:11;;;;;;;6.40;5.90;;;;;;;13.91;59.04;101362.47;7797763;18;19996;-73
2023/05/02 11:15:41;;;;;;;5.25;4.95;;;;;;;14.71;56.50;101371.16;7794137;18;20060;-74
2023/05/02 11:18:11;;;;;;;5.50;4.88;;;;;;;14.90;56.08;101311.91;7792164;18;20251;-72
2023/05/02 11:20:40;;;;;;;5.47;5.07;;;;;;;14.65;56.10;101305.44;7792710;18;20069;-72
2023/05/02 11:23:12;;;;;;;6.28;5.68;;;;;;;14.19;57.34;101292.25;7792225;18;20001;-75
2023/05/02 11:25:44;;;;;;;5.57;5.28;;;;;;;13.27;59.68;101297.38;7794571;18;20014;-74